Time;durP1;ratioP1;P1;durP2;ratioP2;P2;SDS_P1;SDS_P2;PMS_P1;PMS_P2;Temp;Humidity;BMP_temperature;BMP_pressure;BME280_temperature;BME280_humidity;BME280_pressure;Samples;Min_cycle;Max_cycle;Signal;HPM_P1;HPM_P2
2024/01/16 00:02:07;;;;;;;4.18;3.88;;;1.70;99.90;;;;;;5090934;28;20464;-74
2024/01/16 00:04:39;;;;;;;4.35;4.05;;;1.70;99.90;;;;;;5080030;28;20305;-74
2024/01/16 00:07:06;;;;;;;4.20;3.90;;;1.70;99.90;;;;;;5081781;28;20228;-76
2024/01/16 00:09:34;;;;;;;3.65;3.45;;;1.80;99.90;;;;;;5077173;28;20209;-75
2024/01/16 00:12:02;;;;;;;3.85;3.65;;;1.80;99.90;;;;;;5076988;28;20325;-75
2024/01/16 00:14:29;;;;;;;3.80;3.60;;;1.80;99.90;;;;;;5077408;28;20633;-76
2024/01/16 00:16:56;;;;;;;4.18;3.88;;;1.80;99.90;;;;;;5074814;28;20209;-77
2024/01/16 00:19:23;;;;;;;4.07;3.88;;;1.90;99.90;;;;;;5074869;28;20221;-76
2024/01/16 00:21:55;;;;;;;3.33;3.13;;;2.00;99.90;;;;;;5075339;28;20790;-75
2024/01/16 00:24:22;;;;;;;3.58;3.38;;;2.00;99.90;;;;;;5075984;28;20301;-75
2024/01/16 00:26:50;;;;;;;3.92;3.72;;;2.00;99.90;;;;;;5073365;28;20221;-77
2024/01/16 00:29:18;;;;;;;3.60;3.40;;;2.10;99.90;;;;;;5072277;28;20208;-76
2024/01/16 00:31:45;;;;;;;4.97;3.20;;;2.10;99.90;;;;;;5074650;28;20222;-76
2024/01/16 00:34:12;;;;;;;3.78;3.58;;;2.10;99.90;;;;;;5079223;28;21328;-74
2024/01/16 00:36:39;;;;;;;3.50;3.30;;;2.00;99.90;;;;;;5078040;28;20236;-77
2024/01/16 00:39:08;;;;;;;3.45;3.25;;;2.10;99.90;;;;;;5074451;28;20224;-74
2024/01/16 00:41:35;;;;;;;3.53;3.42;;;2.10;99.90;;;;;;5077383;28;20316;-75
2024/01/16 00:44:02;;;;;;;3.70;3.50;;;2.20;99.90;;;;;;5077410;28;20237;-77
2024/01/16 00:46:30;;;;;;;3.40;3.20;;;2.30;99.90;;;;;;5074949;28;20272;-74
2024/01/16 00:48:57;;;;;;;3.58;3.38;;;2.30;99.90;;;;;;5081558;28;20299;-74
2024/01/16 00:51:24;;;;;;;3.20;3.10;;;2.30;99.90;;;;;;5076856;28;20229;-75
2024/01/16 00:53:51;;;;;;;3.60;3.40;;;2.20;99.90;;;;;;5078550;28;20205;-74
2024/01/16 00:56:20;;;;;;;3.15;3.05;;;2.30;99.90;;;;;;5075365;28;20833;-75
2024/01/16 00:58:47;;;;;;;3.28;3.08;;;2.30;99.90;;;;;;5080859;28;20224;-76
2024/01/16 01:01:14;;;;;;;2.83;2.72;;;2.30;99.90;;;;;;5079334;28;20220;-74
2024/01/16 01:03:41;;;;;;;3.40;3.20;;;2.30;99.90;;;;;;5079597;28;20228;-76
2024/01/16 01:06:08;;;;;;;3.00;2.90;;;2.40;99.90;;;;;;5072000;28;20229;-76
2024/01/16 01:08:35;;;;;;;3.05;2.95;;;2.40;99.90;;;;;;5059104;28;20210;-76
2024/01/16 01:11:02;;;;;;;3.13;2.90;;;2.30;99.90;;;;;;5062359;28;20241;-77
2024/01/16 01:13:31;;;;;;;2.83;2.72;;;2.30;99.90;;;;;;5060505;28;20198;-77
2024/01/16 01:15:58;;;;;;;3.00;2.90;;;2.40;99.90;;;;;;5059030;28;20222;-77
2024/01/16 01:18:25;;;;;;;3.40;3.20;;;2.40;99.90;;;;;;5062611;28;20198;-78
2024/01/16 01:20:52;;;;;;;3.05;2.85;;;2.50;99.90;;;;;;5064148;28;20202;-77
2024/01/16 01:23:19;;;;;;;3.00;2.90;;;2.50;99.90;;;;;;5082842;28;20820;-77
2024/01/16 01:25:46;;;;;;;3.25;3.08;;;2.50;99.90;;;;;;5075308;28;20229;-76
2024/01/16 01:28:13;;;;;;;3.05;2.95;;;2.50;99.90;;;;;;5074999;28;20206;-76
2024/01/16 01:30:42;;;;;;;3.20;3.10;;;2.40;99.90;;;;;;5077487;28;20198;-77
2024/01/16 01:33:09;;;;;;;2.80;2.70;;;2.50;99.90;;;;;;5087163;28;20208;-76
2024/01/16 01:35:36;;;;;;;2.78;2.67;;;2.50;99.90;;;;;;5077936;28;20240;-76
2024/01/16 01:38:03;;;;;;;3.10;3.00;;;2.50;99.90;;;;;;5078797;28;20230;-76
2024/01/16 01:40:30;;;;;;;3.05;2.90;;;2.40;99.90;;;;;;5074737;28;20210;-75
2024/01/16 01:42:57;;;;;;;2.95;2.85;;;2.40;99.90;;;;;;5081942;28;20221;-77
2024/01/16 01:45:24;;;;;;;3.40;3.10;;;2.40;99.90;;;;;;5073840;28;20225;-76
2024/01/16 01:47:52;;;;;;;3.42;3.22;;;2.40;99.90;;;;;;5078971;28;20221;-76
2024/01/16 01:50:20;;;;;;;3.33;3.13;;;2.30;99.90;;;;;;5076384;28;20199;-75
2024/01/16 01:52:47;;;;;;;3.63;3.38;;;2.30;99.90;;;;;;5088151;27;20225;-76
2024/01/16 01:55:16;;;;;;;3.58;3.38;;;2.30;99.90;;;;;;5083188;28;20252;-76
2024/01/16 01:57:43;;;;;;;3.15;2.95;;;2.20;99.90;;;;;;5076975;28;20571;-76
2024/01/16 02:00:11;;;;;;;3.45;3.28;;;2.10;99.90;;;;;;5082857;28;20271;-76
2024/01/16 02:02:39;;;;;;;2.92;2.83;;;2.10;99.90;;;;;;5072915;28;20225;-76
2024/01/16 02:05:08;;;;;;;2.95;2.85;;;2.10;99.90;;;;;;5069960;28;20232;-77
2024/01/16 02:07:35;;;;;;;3.05;2.95;;;2.10;99.90;;;;;;5075464;28;20213;-77
2024/01/16 02:10:03;;;;;;;2.90;2.80;;;2.10;99.90;;;;;;5084630;28;20640;-77
2024/01/16 02:12:31;;;;;;;3.13;3.03;;;2.00;99.90;;;;;;5080554;28;20885;-75
2024/01/16 02:14:58;;;;;;;2.67;2.58;;;2.00;99.90;;;;;;5080861;28;20221;-76
2024/01/16 02:17:25;;;;;;;3.25;3.08;;;2.00;99.90;;;;;;5079252;28;20213;-75
2024/01/16 02:19:52;;;;;;;3.17;3.08;;;2.00;99.90;;;;;;5086363;28;20216;-76
2024/01/16 02:22:22;;;;;;;2.75;2.65;;;2.00;99.90;;;;;;5083794;28;20223;-75
2024/01/16 02:24:51;;;;;;;3.13;3.03;;;1.90;99.90;;;;;;5084812;28;20347;-75
2024/01/16 02:27:18;;;;;;;3.53;3.20;;;1.90;99.90;;;;;;5084292;28;20686;-76
2024/01/16 02:29:45;;;;;;;3.15;2.95;;;1.90;99.90;;;;;;5082951;28;20208;-76
2024/01/16 02:32:14;;;;;;;3.22;3.13;;;1.90;99.90;;;;;;5083567;28;20591;-74
2024/01/16 02:34:41;;;;;;;3.28;3.17;;;1.90;99.90;;;;;;5084184;28;20312;-75
2024/01/16 02:37:08;;;;;;;3.00;2.90;;;1.90;99.90;;;;;;5080304;28;20217;-75
2024/01/16 02:39:35;;;;;;;3.13;3.03;;;1.90;99.90;;;;;;5079242;28;20224;-76
2024/01/16 02:42:03;;;;;;;2.95;2.85;;;1.90;99.90;;;;;;5080201;28;20630;-77
2024/01/16 02:44:31;;;;;;;3.35;3.15;;;1.90;99.90;;;;;;5081165;28;20216;-77
2024/01/16 02:46:58;;;;;;;3.38;3.17;;;1.90;99.90;;;;;;5083122;28;20221;-75
2024/01/16 02:49:25;;;;;;;3.33;3.13;;;1.80;99.90;;;;;;5082026;28;20198;-77
2024/01/16 02:51:52;;;;;;;3.05;2.85;;;1.90;99.90;;;;;;5080053;28;20213;-77
2024/01/16 02:54:21;;;;;;;2.72;2.63;;;1.90;99.90;;;;;;5081413;28;20214;-76
2024/01/16 02:56:48;;;;;;;3.33;3.13;;;1.90;99.90;;;;;;5085530;28;20906;-76
2024/01/16 02:59:16;;;;;;;3.08;2.97;;;1.90;99.90;;;;;;5081899;28;20217;-77
2024/01/16 03:01:43;;;;;;;2.90;2.80;;;1.80;99.90;;;;;;5080874;28;20226;-75
2024/01/16 03:04:11;;;;;;;3.15;3.05;;;1.80;99.90;;;;;;5087823;28;20213;-75
2024/01/16 03:06:38;;;;;;;3.45;3.30;;;1.70;99.90;;;;;;5083813;28;20416;-78
2024/01/16 03:09:06;;;;;;;3.10;3.00;;;1.60;99.90;;;;;;5088436;28;20209;-76
2024/01/16 03:11:33;;;;;;;3.17;3.08;;;1.50;99.90;;;;;;5090826;27;20232;-75
2024/01/16 03:14:00;;;;;;;3.10;3.00;;;1.50;99.90;;;;;;5089127;28;20201;-75
2024/01/16 03:16:29;;;;;;;3.10;2.90;;;1.50;99.90;;;;;;5080982;28;20230;-76
2024/01/16 03:18:56;;;;;;;3.00;2.90;;;1.40;99.90;;;;;;5087367;28;20217;-76
2024/01/16 03:21:23;;;;;;;2.92;2.83;;;1.50;99.90;;;;;;5091709;28;20221;-76
2024/01/16 03:23:50;;;;;;;3.50;3.30;;;1.40;99.90;;;;;;5088147;28;20197;-77
2024/01/16 03:26:17;;;;;;;3.00;2.90;;;1.50;99.90;;;;;;5087286;28;20789;-77
2024/01/16 03:28:45;;;;;;;3.40;3.20;;;1.50;99.90;;;;;;5084611;28;20210;-76
2024/01/16 03:31:14;;;;;;;3.20;3.10;;;1.50;99.90;;;;;;5078718;28;20232;-77
2024/01/16 03:33:43;;;;;;;3.00;2.90;;;1.60;99.90;;;;;;5086890;28;20251;-76
2024/01/16 03:36:12;;;;;;;2.95;2.85;;;1.50;99.90;;;;;;5086926;28;20766;-77
2024/01/16 03:38:39;;;;;;;3.03;2.92;;;1.50;99.90;;;;;;5084547;28;20214;-76
2024/01/16 03:41:07;;;;;;;3.08;2.97;;;1.40;99.90;;;;;;5084336;28;20289;-76
2024/01/16 03:43:35;;;;;;;3.10;3.00;;;1.30;99.90;;;;;;5102171;28;20232;-76
2024/01/16 03:46:02;;;;;;;3.58;3.40;;;1.30;99.90;;;;;;5085830;28;20253;-75
2024/01/16 03:48:29;;;;;;;3.30;3.20;;;1.30;99.90;;;;;;5086022;28;20212;-75
2024/01/16 03:50:57;;;;;;;3.70;3.50;;;1.40;99.90;;;;;;5081718;28;20190;-76
2024/01/16 03:53:24;;;;;;;3.40;3.20;;;1.30;99.90;;;;;;5064561;28;20616;-76
2024/01/16 03:55:52;;;;;;;3.35;3.20;;;1.30;99.90;;;;;;5065080;28;20240;-77
2024/01/16 03:58:19;;;;;;;3.10;3.00;;;1.30;99.90;;;;;;5085673;28;20202;-75
2024/01/16 04:00:47;;;;;;;3.08;2.97;;;1.30;99.90;;;;;;5084805;28;20225;-78
2024/01/16 04:03:14;;;;;;;3.35;3.25;;;1.30;99.90;;;;;;5084455;28;20206;-77
2024/01/16 04:05:41;;;;;;;3.15;3.00;;;1.30;99.90;;;;;;5087596;28;20220;-79
2024/01/16 04:08:09;;;;;;;3.10;3.00;;;1.30;99.90;;;;;;5087424;28;20203;-77
2024/01/16 04:10:37;;;;;;;3.10;2.95;;;1.30;99.90;;;;;;5083544;28;20208;-77
2024/01/16 04:13:04;;;;;;;3.45;3.35;;;1.30;99.90;;;;;;5084336;28;20719;-77
2024/01/16 04:15:31;;;;;;;3.22;3.03;;;1.20;99.90;;;;;;5088693;28;20233;-77
2024/01/16 04:17:58;;;;;;;3.28;3.08;;;1.20;99.90;;;;;;5089677;28;20222;-76
2024/01/16 04:20:25;;;;;;;3.20;3.10;;;1.10;99.90;;;;;;5089058;28;20213;-77
2024/01/16 04:22:52;;;;;;;3.05;2.95;;;1.10;99.90;;;;;;5090782;28;20221;-77
2024/01/16 04:25:21;;;;;;;2.97;2.88;;;1.10;99.90;;;;;;5082673;28;20213;-77
2024/01/16 04:27:48;;;;;;;2.90;2.80;;;1.20;99.90;;;;;;5083162;28;20213;-77
2024/01/16 04:30:15;;;;;;;2.95;2.85;;;1.20;99.90;;;;;;5089631;28;20702;-77
2024/01/16 04:32:42;;;;;;;2.85;2.75;;;1.20;99.90;;;;;;5063823;28;20226;-77
2024/01/16 04:35:10;;;;;;;3.00;2.90;;;1.20;99.90;;;;;;5054667;28;20218;-76
2024/01/16 04:37:37;;;;;;;3.17;3.05;;;1.20;99.90;;;;;;5074091;28;20325;-76
2024/01/16 04:40:05;;;;;;;2.97;2.88;;;1.20;99.90;;;;;;5081389;28;20994;-76
2024/01/16 04:42:34;;;;;;;2.83;2.72;;;1.10;99.90;;;;;;5083847;28;20891;-75
2024/01/16 04:45:01;;;;;;;3.00;2.90;;;1.10;99.90;;;;;;5081077;28;20239;-76
2024/01/16 04:47:28;;;;;;;3.17;3.08;;;1.10;99.90;;;;;;5079642;28;20232;-77
2024/01/16 04:49:55;;;;;;;3.15;3.05;;;1.10;99.90;;;;;;5076157;28;20230;-76
2024/01/16 04:52:22;;;;;;;3.22;3.13;;;1.10;99.90;;;;;;5077781;28;21009;-78
2024/01/16 04:54:49;;;;;;;3.22;3.13;;;1.10;99.90;;;;;;5083465;28;20577;-77
2024/01/16 04:57:16;;;;;;;3.30;3.20;;;1.00;99.90;;;;;;5085353;28;20224;-76
2024/01/16 04:59:45;;;;;;;3.10;3.00;;;1.00;99.90;;;;;;5080725;28;20208;-75
2024/01/16 05:02:14;;;;;;;3.10;3.00;;;1.00;99.90;;;;;;5077391;28;20228;-78
2024/01/16 05:04:41;;;;;;;3.95;3.75;;;1.00;99.90;;;;;;5085572;28;20263;-77
2024/01/16 05:07:08;;;;;;;4.45;4.15;;;1.00;99.90;;;;;;5090523;28;20267;-77
2024/01/16 05:09:35;;;;;;;4.10;3.90;;;1.00;99.90;;;;;;5084085;28;21001;-78
2024/01/16 05:12:02;;;;;;;4.30;3.90;;;1.00;99.90;;;;;;5082961;28;20229;-77
2024/01/16 05:14:29;;;;;;;3.65;3.47;;;1.00;99.90;;;;;;5079872;28;20221;-76
2024/01/16 05:16:58;;;;;;;3.30;3.20;;;1.00;99.90;;;;;;5088557;28;20266;-77
2024/01/16 05:19:25;;;;;;;3.22;3.13;;;1.00;99.90;;;;;;5086323;28;20193;-75
2024/01/16 05:21:52;;;;;;;2.97;2.88;;;1.10;99.90;;;;;;5086142;28;20253;-77
2024/01/16 05:24:19;;;;;;;3.38;3.20;;;1.10;99.90;;;;;;5081841;28;20215;-76
2024/01/16 05:26:46;;;;;;;3.20;3.10;;;1.10;99.90;;;;;;5083562;28;20237;-77
2024/01/16 05:29:13;;;;;;;3.45;3.25;;;1.10;99.90;;;;;;5083658;28;20241;-77
2024/01/16 05:31:43;;;;;;;3.50;3.35;;;1.10;99.90;;;;;;5086925;28;20757;-74
2024/01/16 05:34:12;;;;;;;3.00;2.90;;;1.10;99.90;;;;;;5096997;28;20212;-77
2024/01/16 05:36:39;;;;;;;3.30;3.10;;;1.10;99.90;;;;;;5095016;28;20219;-77
2024/01/16 05:39:07;;;;;;;2.97;2.88;;;1.00;99.90;;;;;;5084661;28;20212;-77
2024/01/16 05:41:35;;;;;;;3.08;2.97;;;1.00;99.90;;;;;;5080780;28;20308;-77
2024/01/16 05:44:03;;;;;;;3.20;3.10;;;1.00;99.90;;;;;;5075452;28;20848;-77
2024/01/16 05:46:32;;;;;;;3.80;3.60;;;1.00;99.90;;;;;;5080643;28;20221;-76
2024/01/16 05:48:59;;;;;;;3.58;3.35;;;1.00;99.90;;;;;;5081556;28;20212;-77
2024/01/16 05:51:29;;;;;;;3.80;3.60;;;1.00;99.90;;;;;;5077993;28;20593;-76
2024/01/16 05:53:56;;;;;;;4.38;4.07;;;1.00;99.90;;;;;;5082311;28;20193;-75
2024/01/16 05:56:23;;;;;;;5.00;4.50;;;1.00;99.90;;;;;;5081885;28;20244;-76
2024/01/16 05:58:50;;;;;;;5.38;4.88;;;1.00;99.90;;;;;;5066054;28;20209;-77
2024/01/16 06:01:19;;;;;;;5.97;4.28;;;0.90;99.90;;;;;;5063531;28;20301;-78
2024/01/16 06:03:48;;;;;;;3.88;3.67;;;0.90;99.90;;;;;;5069065;28;20202;-79
2024/01/16 06:06:15;;;;;;;3.88;3.67;;;0.90;99.90;;;;;;5072104;28;20258;-78
2024/01/16 06:08:44;;;;;;;3.80;3.60;;;0.90;99.90;;;;;;5094563;28;20200;-78
2024/01/16 06:11:12;;;;;;;3.60;3.40;;;0.80;99.90;;;;;;5090584;28;20225;-78
2024/01/16 06:13:39;;;;;;;3.40;3.20;;;0.80;99.90;;;;;;5090499;28;20679;-78
2024/01/16 06:16:08;;;;;;;3.40;3.30;;;0.70;99.90;;;;;;5087405;28;20226;-78
2024/01/16 06:18:35;;;;;;;3.67;3.47;;;0.70;99.90;;;;;;5088831;28;20209;-78
2024/01/16 06:21:02;;;;;;;3.30;3.20;;;0.70;99.90;;;;;;5092307;28;20240;-78
2024/01/16 06:23:29;;;;;;;3.70;3.50;;;0.70;99.90;;;;;;5085701;28;20194;-78
2024/01/16 06:25:57;;;;;;;3.53;3.33;;;0.70;99.90;;;;;;5080769;28;20213;-76
2024/01/16 06:28:24;;;;;;;3.00;2.90;;;0.70;99.90;;;;;;5084059;28;20236;-77
2024/01/16 06:30:51;;;;;;;3.35;3.15;;;0.70;99.90;;;;;;5094978;28;20719;-78
2024/01/16 06:33:18;;;;;;;4.65;3.45;;;0.70;99.90;;;;;;5096583;28;20207;-77
2024/01/16 06:35:45;;;;;;;3.60;3.30;;;0.70;99.90;;;;;;5088313;28;20221;-77
2024/01/16 06:38:12;;;;;;;5.40;3.70;;;0.70;99.90;;;;;;5071853;28;20245;-78
2024/01/16 06:40:39;;;;;;;4.97;4.57;;;0.60;99.90;;;;;;5076645;28;20222;-79
2024/01/16 06:43:08;;;;;;;5.10;4.70;;;0.60;99.90;;;;;;5094959;28;20664;-80
2024/01/16 06:45:35;;;;;;;4.93;4.53;;;0.60;99.90;;;;;;5095019;28;20312;-79
2024/01/16 06:48:02;;;;;;;4.82;4.43;;;0.60;99.90;;;;;;5071628;28;20232;-76
2024/01/16 06:50:29;;;;;;;4.18;3.97;;;0.70;99.90;;;;;;5064583;28;20197;-77
2024/01/16 06:52:56;;;;;;;4.70;4.35;;;0.70;99.90;;;;;;5069546;28;20213;-77
2024/01/16 06:55:24;;;;;;;4.10;3.80;;;0.70;99.90;;;;;;5072415;28;20245;-77
2024/01/16 06:57:51;;;;;;;3.60;3.40;;;0.70;99.90;;;;;;5066576;28;20241;-77
2024/01/16 07:00:22;;;;;;;3.80;3.60;;;0.70;99.90;;;;;;5067644;28;20202;-77
2024/01/16 07:02:51;;;;;;;4.05;3.85;;;0.70;99.90;;;;;;5068612;28;20226;-77
2024/01/16 07:05:18;;;;;;;4.30;4.00;;;0.70;99.90;;;;;;5065182;28;20238;-77
2024/01/16 07:07:45;;;;;;;4.00;3.78;;;0.70;99.90;;;;;;5083261;28;20249;-76
2024/01/16 07:10:17;;;;;;;3.85;3.65;;;0.60;99.90;;;;;;5088870;28;20205;-77
2024/01/16 07:12:45;;;;;;;4.03;3.80;;;0.70;99.90;;;;;;5084169;28;20216;-77
2024/01/16 07:15:12;;;;;;;3.63;3.42;;;0.60;99.90;;;;;;5087732;28;20221;-76
2024/01/16 07:17:40;;;;;;;3.80;3.60;;;0.70;99.90;;;;;;5088156;28;20228;-79
2024/01/16 07:20:08;;;;;;;4.13;3.88;;;0.70;99.90;;;;;;5088358;28;20220;-77
2024/01/16 07:22:35;;;;;;;4.03;3.83;;;0.70;99.90;;;;;;5094769;28;20228;-79
2024/01/16 07:25:02;;;;;;;3.67;3.47;;;0.70;99.90;;;;;;5087671;28;20236;-79
2024/01/16 07:27:29;;;;;;;3.50;3.40;;;0.70;99.90;;;;;;5087483;28;20232;-77
2024/01/16 07:29:56;;;;;;;4.10;3.80;;;0.70;99.90;;;;;;5092170;28;20201;-76
2024/01/16 07:32:23;;;;;;;3.75;3.55;;;0.70;99.90;;;;;;5083938;28;20239;-77
2024/01/16 07:34:52;;;;;;;3.80;3.60;;;0.70;99.90;;;;;;5083115;28;20225;-77
2024/01/16 07:37:19;;;;;;;3.97;3.78;;;0.70;99.90;;;;;;5084303;28;20217;-76
2024/01/16 07:39:46;;;;;;;4.00;3.80;;;0.70;99.90;;;;;;5085134;28;20208;-77
2024/01/16 07:42:14;;;;;;;4.03;3.80;;;0.70;99.90;;;;;;5094484;28;20228;-76
2024/01/16 07:44:41;;;;;;;4.20;3.92;;;0.70;99.90;;;;;;5089677;28;20226;-76
2024/01/16 07:47:08;;;;;;;4.10;3.80;;;0.80;99.90;;;;;;5082216;28;20751;-76
2024/01/16 07:49:35;;;;;;;4.18;3.88;;;0.90;99.90;;;;;;5083803;28;20233;-79
2024/01/16 07:52:04;;;;;;;5.18;3.70;;;0.90;99.90;;;;;;5093104;28;20229;-79
2024/01/16 07:54:31;;;;;;;3.88;3.65;;;0.90;99.90;;;;;;5092286;28;20221;-76
2024/01/16 07:56:59;;;;;;;3.90;3.70;;;0.90;99.90;;;;;;5082999;28;20249;-77
2024/01/16 07:59:27;;;;;;;3.53;3.33;;;0.90;99.90;;;;;;5087537;28;20205;-77
2024/01/16 08:01:54;;;;;;;4.03;3.72;;;0.90;99.90;;;;;;5070431;28;20272;-76
2024/01/16 08:04:21;;;;;;;3.90;3.70;;;0.90;99.90;;;;;;5076733;28;20266;-76
2024/01/16 08:06:48;;;;;;;3.88;3.67;;;0.80;99.90;;;;;;5078754;28;20306;-76
2024/01/16 08:09:17;;;;;;;3.88;3.58;;;0.90;99.90;;;;;;5077613;28;20205;-76
2024/01/16 08:11:44;;;;;;;3.80;3.60;;;0.90;99.90;;;;;;5077261;28;20228;-78
2024/01/16 08:14:11;;;;;;;3.90;3.70;;;0.90;99.90;;;;;;5081251;28;20208;-77
2024/01/16 08:16:38;;;;;;;4.10;3.80;;;0.90;99.90;;;;;;5082030;27;20225;-79
2024/01/16 08:19:05;;;;;;;4.00;3.70;;;1.00;99.90;;;;;;5081784;28;20726;-78
2024/01/16 08:21:32;;;;;;;4.25;4.00;;;1.00;99.90;;;;;;5077583;28;20262;-78
2024/01/16 08:23:59;;;;;;;4.05;3.72;;;1.20;99.90;;;;;;5080731;28;20201;-76
2024/01/16 08:26:28;;;;;;;6.38;5.93;;;2.20;99.90;;;;;;5076345;28;20224;-76
2024/01/16 08:28:55;;;;;;;5.32;4.93;;;3.40;99.90;;;;;;5083596;28;20205;-78
2024/01/16 08:31:22;;;;;;;5.95;5.45;;;4.50;99.90;;;;;;5079869;28;20217;-77
2024/01/16 08:33:49;;;;;;;5.78;5.22;;;5.30;99.90;;;;;;5085402;28;20197;-78
2024/01/16 08:36:16;;;;;;;5.10;4.70;;;5.90;99.90;;;;;;5075475;28;20249;-78
2024/01/16 08:38:43;;;;;;;4.72;4.32;;;6.60;99.90;;;;;;5079539;28;20212;-78
2024/01/16 08:41:11;;;;;;;4.70;4.40;;;7.10;99.90;;;;;;5090383;28;20229;-79
2024/01/16 08:43:39;;;;;;;4.57;4.28;;;7.60;99.90;;;;;;5073568;28;20615;-76
2024/01/16 08:46:07;;;;;;;3.97;3.67;;;8.00;99.90;;;;;;5068812;28;20230;-77
2024/01/16 08:48:34;;;;;;;4.40;4.00;;;8.30;99.90;;;;;;5065074;28;20213;-77
2024/01/16 08:51:01;;;;;;;4.40;3.95;;;8.50;99.90;;;;;;5065426;28;20206;-78
2024/01/16 08:53:28;;;;;;;4.38;3.97;;;8.60;99.90;;;;;;5072300;28;20209;-77
2024/01/16 08:55:55;;;;;;;6.60;3.80;;;8.60;99.90;;;;;;5066631;28;20229;-79
2024/01/16 08:58:22;;;;;;;4.20;3.90;;;8.70;99.90;;;;;;5072128;28;20247;-79
2024/01/16 09:00:51;;;;;;;4.40;4.05;;;9.00;99.90;;;;;;5074188;28;20205;-78
2024/01/16 09:03:18;;;;;;;4.30;3.90;;;9.10;99.90;;;;;;5064586;28;20202;-77
2024/01/16 09:05:46;;;;;;;4.75;4.32;;;9.40;99.90;;;;;;5069873;28;20853;-79
2024/01/16 09:08:13;;;;;;;4.97;4.47;;;9.60;99.90;;;;;;5070114;28;20202;-78
2024/01/16 09:10:40;;;;;;;4.50;4.10;;;9.70;99.90;;;;;;5072761;28;20213;-78
2024/01/16 09:13:07;;;;;;;4.32;3.92;;;9.50;99.90;;;;;;5084483;28;20236;-77
2024/01/16 09:15:34;;;;;;;4.15;3.80;;;9.60;99.90;;;;;;5069802;28;20213;-77
2024/01/16 09:18:03;;;;;;;4.45;4.07;;;9.80;99.90;;;;;;5068356;28;21000;-78
2024/01/16 09:20:30;;;;;;;3.95;3.65;;;9.90;99.90;;;;;;5070170;28;20280;-78
2024/01/16 09:22:57;;;;;;;4.40;4.00;;;10.10;99.90;;;;;;5069400;28;20832;-78
2024/01/16 09:25:26;;;;;;;4.20;3.90;;;10.90;99.40;;;;;;5066560;28;20232;-77
2024/01/16 09:27:54;;;;;;;5.88;4.20;;;12.00;97.10;;;;;;5067413;28;20285;-76
2024/01/16 09:30:22;;;;;;;4.07;3.67;;;13.30;91.70;;;;;;5073345;28;20261;-77
2024/01/16 09:32:49;;;;;;;3.88;3.58;;;15.00;81.80;;;;;;5096426;28;20209;-78
2024/01/16 09:35:18;;;;;;;4.65;4.25;;;16.30;72.70;;;;;;5094536;28;20216;-79
2024/01/16 09:37:45;;;;;;;3.63;3.35;;;17.70;63.60;;;;;;5095002;28;20221;-78
2024/01/16 09:40:13;;;;;;;4.45;3.70;;;18.50;53.60;;;;;;5095595;28;20194;-78
2024/01/16 09:42:41;;;;;;;8.18;4.72;;;19.00;49.80;;;;;;5080712;28;20289;-78
2024/01/16 09:45:10;;;;;;;5.28;4.78;;;19.10;48.50;;;;;;5074536;28;20211;-79
2024/01/16 09:47:39;;;;;;;4.40;4.00;;;19.40;47.60;;;;;;5076169;28;20213;-79
2024/01/16 09:50:07;;;;;;;4.72;4.30;;;19.60;46.70;;;;;;5072258;28;20202;-78
2024/01/16 09:52:35;;;;;;;5.72;5.22;;;19.90;45.70;;;;;;5084299;28;20373;-76
2024/01/16 09:55:02;;;;;;;5.80;5.30;;;19.90;46.10;;;;;;5083841;28;20225;-76
2024/01/16 09:57:31;;;;;;;6.03;4.80;;;19.90;44.70;;;;;;5068719;28;20222;-78
2024/01/16 10:00:03;;;;;;;5.30;4.80;;;19.70;49.20;;;;;;5067538;28;20202;-77
2024/01/16 10:02:30;;;;;;;4.78;4.32;;;18.90;49.80;;;;;;5069438;28;20221;-76
2024/01/16 10:04:58;;;;;;;4.22;3.83;;;17.80;50.50;;;;;;5078476;28;20229;-77
2024/01/16 10:07:28;;;;;;;3.95;3.60;;;16.50;51.90;;;;;;5085957;28;20278;-78
2024/01/16 10:09:59;;;;;;;5.05;4.38;;;15.40;52.50;;;;;;5090174;28;20652;-77
2024/01/16 10:12:27;;;;;;;4.43;3.78;;;14.60;57.00;;;;;;5085780;28;20889;-78
2024/01/16 10:14:56;;;;;;;4.38;4.00;;;13.90;59.00;;;;;;5081268;28;20213;-76
2024/01/16 10:17:35;;;;;;;6.00;4.25;;;13.70;59.20;;;;;;5086636;28;20437;-78
2024/01/16 10:20:04;;;;;;;4.07;3.67;;;13.20;58.50;;;;;;5087309;28;20213;-78
2024/01/16 10:22:31;;;;;;;5.07;3.67;;;12.70;59.40;;;;;;5086666;28;20537;-78
2024/01/16 10:25:11;;;;;;;4.07;3.60;;;12.20;60.30;;;;;;5092854;28;20220;-78
2024/01/16 10:27:39;;;;;;;5.47;3.83;;;11.90;60.50;;;;;;5086399;28;20268;-78
2024/01/16 10:30:08;;;;;;;3.40;3.15;;;12.00;59.90;;;;;;5083669;28;20209;-77
2024/01/16 10:32:37;;;;;;;3.67;3.05;;;11.90;59.30;;;;;;5088604;28;20216;-77
2024/01/16 10:35:10;;;;;;;3.40;3.20;;;12.00;61.90;;;;;;5082018;28;20344;-78
2024/01/16 10:37:47;;;;;;;3.50;3.20;;;12.00;61.20;;;;;;5084432;28;20221;-78
2024/01/16 10:40:19;;;;;;;3.10;2.80;;;11.80;58.30;;;;;;5087349;28;20212;-78
2024/01/16 10:42:47;;;;;;;3.53;3.28;;;11.90;58.90;;;;;;5088745;28;20229;-78
2024/01/16 10:45:19;;;;;;;3.10;2.90;;;11.90;60.70;;;;;;5087258;28;20221;-80
2024/01/16 10:47:47;;;;;;;3.22;3.00;;;12.00;60.40;;;;;;5086837;28;20251;-79
2024/01/16 10:50:15;;;;;;;3.33;3.03;;;12.20;60.70;;;;;;5083796;28;20352;-79
2024/01/16 10:52:48;;;;;;;3.03;2.78;;;12.30;58.70;;;;;;5090974;28;20214;-78
2024/01/16 10:55:22;;;;;;;3.42;3.13;;;12.20;57.90;;;;;;5083293;28;20216;-78
2024/01/16 10:57:50;;;;;;;3.25;3.05;;;12.20;60.00;;;;;;5080556;28;20246;-79
2024/01/16 11:00:20;;;;;;;2.95;2.72;;;11.70;60.10;;;;;;5082432;28;20250;-77
2024/01/16 11:02:51;;;;;;;3.40;3.03;;;11.10;60.10;;;;;;5080044;28;20225;-76
2024/01/16 11:05:19;;;;;;;3.50;3.20;;;11.10;61.20;;;;;;5082624;28;20308;-78
2024/01/16 11:07:47;;;;;;;4.20;3.40;;;11.00;62.20;;;;;;5066264;28;20310;-79
2024/01/16 11:10:15;;;;;;;3.30;3.00;;;11.10;64.20;;;;;;5061001;28;20209;-78
2024/01/16 11:12:44;;;;;;;3.33;3.00;;;11.20;64.50;;;;;;5077807;28;20228;-78
2024/01/16 11:15:13;;;;;;;3.22;3.03;;;11.60;63.90;;;;;;5080938;28;20808;-79
2024/01/16 11:17:41;;;;;;;3.45;3.00;;;11.90;70.30;;;;;;5066679;28;20339;-80
2024/01/16 11:20:13;;;;;;;3.42;3.13;;;12.00;67.40;;;;;;5072071;28;20206;-80
2024/01/16 11:22:43;;;;;;;3.40;3.10;;;12.00;66.80;;;;;;5072718;28;20218;-79
2024/01/16 11:25:13;;;;;;;3.40;3.10;;;11.70;64.60;;;;;;5068966;28;20218;-77
2024/01/16 11:27:41;;;;;;;3.70;3.40;;;11.50;64.40;;;;;;5083834;28;20253;-79
2024/01/16 11:30:12;;;;;;;2.75;2.55;;;11.70;68.40;;;;;;5087206;28;20209;-78
2024/01/16 11:32:40;;;;;;;2.85;2.65;;;11.90;65.50;;;;;;5087789;28;20259;-77
2024/01/16 11:35:08;;;;;;;3.08;2.85;;;11.80;65.40;;;;;;5076877;28;20249;-77
2024/01/16 11:37:37;;;;;;;3.10;2.80;;;11.40;64.70;;;;;;5055285;28;20230;-77
2024/01/16 11:40:32;;;;;;;3.28;3.00;;;11.20;63.10;;;;;;5053381;28;20247;-78
2024/01/16 11:43:00;;;;;;;2.80;2.60;;;10.90;61.00;;;;;;5040453;28;20215;-78
2024/01/16 11:45:51;;;;;;;3.00;2.80;;;10.60;61.60;;;;;;5062207;28;20234;-78
2024/01/16 11:48:19;;;;;;;3.17;2.97;;;10.30;64.30;;;;;;5062970;28;20240;-77
2024/01/16 11:50:46;;;;;;;2.95;2.70;;;10.20;62.50;;;;;;5061411;28;20847;-78
2024/01/16 11:53:37;;;;;;;5.32;3.00;;;10.50;68.10;;;;;;5075815;28;20210;-77
2024/01/16 11:56:32;;;;;;;2.83;2.63;;;10.80;67.90;;;;;;5079336;28;20224;-78
2024/01/16 11:59:15;;;;;;;3.03;2.83;;;11.20;67.00;;;;;;5071063;28;20201;-77
2024/01/16 12:01:46;;;;;;;2.42;2.22;;;11.10;64.50;;;;;;5077261;28;20308;-78
2024/01/16 12:04:18;;;;;;;2.80;2.60;;;11.50;64.60;;;;;;5076352;28;20205;-74
2024/01/16 12:06:57;;;;;;;3.03;2.83;;;11.50;66.90;;;;;;5079257;28;20289;-77
2024/01/16 12:09:27;;;;;;;3.72;2.70;;;12.00;67.30;;;;;;5080846;28;20200;-78
2024/01/16 12:11:58;;;;;;;3.10;2.72;;;12.10;70.00;;;;;;5081040;28;20228;-78
2024/01/16 12:14:25;;;;;;;2.80;2.60;;;11.80;63.40;;;;;;5081576;28;20200;-78
2024/01/16 12:16:54;;;;;;;3.10;2.80;;;11.40;63.20;;;;;;5078458;28;20631;-77
2024/01/16 12:19:21;;;;;;;2.85;2.55;;;11.40;63.60;;;;;;5081343;28;20201;-78
2024/01/16 12:21:48;;;;;;;3.45;3.15;;;11.50;64.80;;;;;;5085420;28;20221;-79
2024/01/16 12:24:17;;;;;;;2.92;2.72;;;12.00;67.60;;;;;;5085342;28;20193;-77
2024/01/16 12:26:44;;;;;;;2.70;2.50;;;12.10;65.10;;;;;;5089055;28;20257;-78
2024/01/16 12:29:11;;;;;;;3.10;2.90;;;12.10;63.40;;;;;;5089665;28;20212;-79
2024/01/16 12:31:38;;;;;;;4.53;3.33;;;11.60;62.10;;;;;;5084769;28;20225;-78
2024/01/16 12:34:10;;;;;;;3.33;3.03;;;11.30;60.90;;;;;;5081384;28;20216;-78
2024/01/16 12:36:38;;;;;;;3.53;2.95;;;10.90;62.10;;;;;;5078211;28;20221;-78
2024/01/16 12:39:06;;;;;;;3.53;3.22;;;10.80;63.30;;;;;;5082610;28;20213;-76
2024/01/16 12:41:37;;;;;;;2.72;2.53;;;10.70;63.90;;;;;;5082653;28;20307;-78
2024/01/16 12:44:05;;;;;;;2.35;2.20;;;10.80;63.10;;;;;;5079562;28;20222;-77
2024/01/16 12:46:32;;;;;;;2.72;2.53;;;10.90;63.30;;;;;;5076253;28;22119;-77
2024/01/16 12:49:02;;;;;;;2.70;2.50;;;11.00;63.60;;;;;;5082823;28;20225;-78
2024/01/16 12:51:31;;;;;;;2.67;2.50;;;11.10;63.10;;;;;;5075598;28;20252;-76
2024/01/16 12:54:12;;;;;;;4.53;2.83;;;11.20;63.40;;;;;;5058343;28;20198;-78
2024/01/16 12:56:39;;;;;;;2.92;2.50;;;11.10;61.00;;;;;;5054630;28;20227;-78
2024/01/16 12:59:11;;;;;;;2.78;2.50;;;10.70;61.00;;;;;;5061830;28;20206;-77
2024/01/16 13:01:43;;;;;;;2.13;1.92;;;10.40;62.60;;;;;;5066232;28;20336;-77